sensor_id;sensor_type;location;lat;lon;timestamp;pressure;altitude;pressure_sealevel;temperature;humidity
68366;BME280;55283;51.466;5.478;2023-03-03T00:00:58;102216.25;;;20.11;39.97
68366;BME280;55283;51.466;5.478;2023-03-03T00:03:26;102216.63;;;20.09;40.06
68366;BME280;55283;51.466;5.478;2023-03-03T00:05:52;102220.25;;;20.06;40.21
68366;BME280;55283;51.466;5.478;2023-03-03T00:08:19;102219.47;;;20.06;39.94
68366;BME280;55283;51.466;5.478;2023-03-03T00:10:47;102225.06;;;20.06;40.17
68366;BME280;55283;51.466;5.478;2023-03-03T00:13:21;102212.25;;;20.08;40.21
68366;BME280;55283;51.466;5.478;2023-03-03T00:15:48;102219.03;;;20.07;39.92
68366;BME280;55283;51.466;5.478;2023-03-03T00:18:32;102220.28;;;20.03;40.14
68366;BME280;55283;51.466;5.478;2023-03-03T00:21:00;102224.25;;;20.05;39.88
68366;BME280;55283;51.466;5.478;2023-03-03T00:23:34;102220.69;;;20.05;40.06
68366;BME280;55283;51.466;5.478;2023-03-03T00:26:00;102218.25;;;20.03;40.08
68366;BME280;55283;51.466;5.478;2023-03-03T00:28:31;102229.06;;;20.05;39.90
68366;BME280;55283;51.466;5.478;2023-03-03T00:31:00;102231.44;;;20.06;39.94
68366;BME280;55283;51.466;5.478;2023-03-03T00:33:35;102234.25;;;20.03;39.83
68366;BME280;55283;51.466;5.478;2023-03-03T00:36:28;102240.25;;;20.01;39.94
68366;BME280;55283;51.466;5.478;2023-03-03T00:41:48;102233.88;;;20.01;40.29
68366;BME280;55283;51.466;5.478;2023-03-03T00:44:39;102240.25;;;20.01;40.08
68366;BME280;55283;51.466;5.478;2023-03-03T00:47:26;102242.28;;;19.97;40.16
68366;BME280;55283;51.466;5.478;2023-03-03T00:50:25;102248.28;;;19.99;39.86
68366;BME280;55283;51.466;5.478;2023-03-03T00:53:13;102250.69;;;19.97;40.03
68366;BME280;55283;51.466;5.478;2023-03-03T00:55:42;102249.09;;;19.96;40.23
68366;BME280;55283;51.466;5.478;2023-03-03T00:58:08;102250.69;;;19.97;39.98
68366;BME280;55283;51.466;5.478;2023-03-03T01:00:35;102249.09;;;19.96;40.29
68366;BME280;55283;51.466;5.478;2023-03-03T01:03:06;102243.88;;;19.98;40.10
68366;BME280;55283;51.466;5.478;2023-03-03T01:05:32;102241.50;;;19.97;40.06
68366;BME280;55283;51.466;5.478;2023-03-03T01:07:58;102245.47;;;19.99;39.91
68366;BME280;55283;51.466;5.478;2023-03-03T01:10:27;102251.09;;;19.99;40.10
68366;BME280;55283;51.466;5.478;2023-03-03T01:12:54;102260.28;;;19.96;40.20
68366;BME280;55283;51.466;5.478;2023-03-03T01:15:20;102259.88;;;19.98;40.00
68366;BME280;55283;51.466;5.478;2023-03-03T01:17:45;102258.66;;;19.95;40.09
68366;BME280;55283;51.466;5.478;2023-03-03T01:20:13;102257.88;;;19.98;39.99
68366;BME280;55283;51.466;5.478;2023-03-03T01:22:38;102261.06;;;20.00;39.82
68366;BME280;55283;51.466;5.478;2023-03-03T01:25:04;102262.28;;;19.99;39.97
68366;BME280;55283;51.466;5.478;2023-03-03T01:27:33;102264.28;;;19.99;40.00
68366;BME280;55283;51.466;5.478;2023-03-03T01:30:04;102269.06;;;19.95;40.15
68366;BME280;55283;51.466;5.478;2023-03-03T01:32:29;102266.69;;;19.97;40.03
68366;BME280;55283;51.466;5.478;2023-03-03T01:34:55;102264.28;;;19.95;40.06
68366;BME280;55283;51.466;5.478;2023-03-03T01:37:20;102267.88;;;19.92;40.06
68366;BME280;55283;51.466;5.478;2023-03-03T01:39:50;102267.47;;;19.94;39.95
68366;BME280;55283;51.466;5.478;2023-03-03T01:42:16;102257.09;;;19.94;40.05
68366;BME280;55283;51.466;5.478;2023-03-03T01:44:42;102261.09;;;19.93;40.07
68366;BME280;55283;51.466;5.478;2023-03-03T01:47:11;102268.69;;;19.96;39.91
68366;BME280;55283;51.466;5.478;2023-03-03T01:49:57;102269.50;;;19.93;40.01
68366;BME280;55283;51.466;5.478;2023-03-03T01:52:38;102277.88;;;19.93;39.83
68366;BME280;55283;51.466;5.478;2023-03-03T01:55:11;102279.47;;;19.94;39.73
68366;BME280;55283;51.466;5.478;2023-03-03T01:57:44;102271.47;;;19.93;39.86
68366;BME280;55283;51.466;5.478;2023-03-03T02:00:12;102268.66;;;19.93;40.09
68366;BME280;55283;51.466;5.478;2023-03-03T02:02:39;102274.25;;;19.93;39.88
68366;BME280;55283;51.466;5.478;2023-03-03T02:05:06;102267.09;;;19.92;40.07
68366;BME280;55283;51.466;5.478;2023-03-03T02:07:32;102267.50;;;19.90;40.01
68366;BME280;55283;51.466;5.478;2023-03-03T02:10:04;102248.72;;;19.90;40.07
68366;BME280;55283;51.466;5.478;2023-03-03T02:12:54;102257.91;;;19.91;40.06
68366;BME280;55283;51.466;5.478;2023-03-03T02:17:44;102253.50;;;19.94;39.79
68366;BME280;55283;51.466;5.478;2023-03-03T02:23:00;102263.06;;;19.93;39.74
68366;BME280;55283;51.466;5.478;2023-03-03T02:25:36;102263.50;;;19.91;39.67
68366;BME280;55283;51.466;5.478;2023-03-03T02:28:05;102265.06;;;19.92;40.02
68366;BME280;55283;51.466;5.478;2023-03-03T02:30:36;102264.69;;;19.90;40.02
68366;BME280;55283;51.466;5.478;2023-03-03T02:33:01;102262.69;;;19.87;39.90
68366;BME280;55283;51.466;5.478;2023-03-03T02:35:30;102270.69;;;19.92;39.93
68366;BME280;55283;51.466;5.478;2023-03-03T02:38:03;102269.91;;;19.88;39.72
68366;BME280;55283;51.466;5.478;2023-03-03T02:40:34;102263.09;;;19.89;39.78
68366;BME280;55283;51.466;5.478;2023-03-03T02:43:01;102269.91;;;19.88;39.75
68366;BME280;55283;51.466;5.478;2023-03-03T02:45:28;102268.28;;;19.87;39.78
68366;BME280;55283;51.466;5.478;2023-03-03T02:47:55;102275.50;;;19.88;39.72
68366;BME280;55283;51.466;5.478;2023-03-03T02:50:21;102275.50;;;19.88;39.88
68366;BME280;55283;51.466;5.478;2023-03-03T02:52:46;102273.09;;;19.90;39.83
68366;BME280;55283;51.466;5.478;2023-03-03T02:55:12;102272.28;;;19.86;39.72
68366;BME280;55283;51.466;5.478;2023-03-03T02:57:37;102273.88;;;19.87;39.96
68366;BME280;55283;51.466;5.478;2023-03-03T03:00:08;102273.88;;;19.87;39.76
68366;BME280;55283;51.466;5.478;2023-03-03T03:02:34;102273.50;;;19.88;39.74
68366;BME280;55283;51.466;5.478;2023-03-03T03:04:59;102270.69;;;19.85;40.05
68366;BME280;55283;51.466;5.478;2023-03-03T03:07:25;102272.72;;;19.84;39.65
68366;BME280;55283;51.466;5.478;2023-03-03T03:09:50;102275.09;;;19.86;39.66
68366;BME280;55283;51.466;5.478;2023-03-03T03:12:15;102277.88;;;19.86;39.86
68366;BME280;55283;51.466;5.478;2023-03-03T03:14:43;102270.69;;;19.85;39.72
68366;BME280;55283;51.466;5.478;2023-03-03T03:17:11;102264.69;;;19.83;39.65
68366;BME280;55283;51.466;5.478;2023-03-03T03:19:37;102270.69;;;19.85;39.59
68366;BME280;55283;51.466;5.478;2023-03-03T03:22:03;102275.50;;;19.84;39.64
68366;BME280;55283;51.466;5.478;2023-03-03T03:24:30;102275.50;;;19.84;39.67
68366;BME280;55283;51.466;5.478;2023-03-03T03:26:59;102277.47;;;19.84;39.67
68366;BME280;55283;51.466;5.478;2023-03-03T03:29:27;102280.69;;;19.82;39.60
68366;BME280;55283;51.466;5.478;2023-03-03T03:31:55;102281.91;;;19.81;39.76
68366;BME280;55283;51.466;5.478;2023-03-03T03:34:21;102284.69;;;19.85;39.65
68366;BME280;55283;51.466;5.478;2023-03-03T03:36:46;102284.69;;;19.85;39.75
68366;BME280;55283;51.466;5.478;2023-03-03T03:39:12;102279.50;;;19.83;39.41
68366;BME280;55283;51.466;5.478;2023-03-03T03:41:40;102290.66;;;19.87;39.51
68366;BME280;55283;51.466;5.478;2023-03-03T03:44:05;102289.88;;;19.86;39.44
68366;BME280;55283;51.466;5.478;2023-03-03T03:46:31;102286.69;;;19.88;39.67
68366;BME280;55283;51.466;5.478;2023-03-03T03:48:56;102287.50;;;19.85;39.57
68366;BME280;55283;51.466;5.478;2023-03-03T03:51:21;102288.28;;;19.85;39.55
68366;BME280;55283;51.466;5.478;2023-03-03T03:53:47;102293.09;;;19.85;39.47
68366;BME280;55283;51.466;5.478;2023-03-03T03:56:12;102285.09;;;19.83;39.68
68366;BME280;55283;51.466;5.478;2023-03-03T03:58:42;102293.09;;;19.85;39.58
68366;BME280;55283;51.466;5.478;2023-03-03T04:01:10;102291.50;;;19.87;39.41
68366;BME280;55283;51.466;5.478;2023-03-03T04:03:35;102296.25;;;19.87;39.42
68366;BME280;55283;51.466;5.478;2023-03-03T04:06:04;102297.09;;;19.87;39.39
68366;BME280;55283;51.466;5.478;2023-03-03T04:08:29;102293.09;;;19.85;39.45
68366;BME280;55283;51.466;5.478;2023-03-03T04:10:55;102289.09;;;19.86;39.10
68366;BME280;55283;51.466;5.478;2023-03-03T04:13:20;102290.28;;;19.85;39.79
68366;BME280;55283;51.466;5.478;2023-03-03T04:15:46;102301.09;;;19.83;39.44
68366;BME280;55283;51.466;5.478;2023-03-03T04:18:11;102296.69;;;19.82;39.57
68366;BME280;55283;51.466;5.478;2023-03-03T04:20:39;102295.47;;;19.83;39.57
68366;BME280;55283;51.466;5.478;2023-03-03T04:23:04;102299.50;;;19.82;39.51
68366;BME280;55283;51.466;5.478;2023-03-03T04:25:29;102291.47;;;19.84;39.50
68366;BME280;55283;51.466;5.478;2023-03-03T04:27:58;102305.47;;;19.84;39.56
68366;BME280;55283;51.466;5.478;2023-03-03T04:30:26;102296.28;;;19.80;39.46
68366;BME280;55283;51.466;5.478;2023-03-03T04:32:51;102299.88;;;19.84;39.58
68366;BME280;55283;51.466;5.478;2023-03-03T04:35:17;102303.09;;;19.82;39.33
68366;BME280;55283;51.466;5.478;2023-03-03T04:37:43;102307.88;;;19.82;39.40
68366;BME280;55283;51.466;5.478;2023-03-03T04:40:09;102301.50;;;19.81;39.41
68366;BME280;55283;51.466;5.478;2023-03-03T04:42:35;102304.69;;;19.80;39.55
68366;BME280;55283;51.466;5.478;2023-03-03T04:45:00;102301.09;;;19.79;39.62
68366;BME280;55283;51.466;5.478;2023-03-03T04:47:26;102301.88;;;19.80;39.39
68366;BME280;55283;51.466;5.478;2023-03-03T04:49:51;102303.88;;;19.79;39.52
68366;BME280;55283;51.466;5.478;2023-03-03T04:52:20;102301.50;;;19.81;39.53
68366;BME280;55283;51.466;5.478;2023-03-03T04:54:48;102315.09;;;19.79;39.66
68366;BME280;55283;51.466;5.478;2023-03-03T04:57:16;102309.88;;;19.78;39.56
68366;BME280;55283;51.466;5.478;2023-03-03T04:59:41;102317.88;;;19.79;39.53
68366;BME280;55283;51.466;5.478;2023-03-03T05:02:07;102312.69;;;19.81;39.47
68366;BME280;55283;51.466;5.478;2023-03-03T05:04:32;102304.69;;;19.80;39.39
68366;BME280;55283;51.466;5.478;2023-03-03T05:06:58;102313.06;;;19.80;39.32
68366;BME280;55283;51.466;5.478;2023-03-03T05:09:23;102312.66;;;19.78;39.55
68366;BME280;55283;51.466;5.478;2023-03-03T05:11:48;102319.88;;;19.79;39.50
68366;BME280;55283;51.466;5.478;2023-03-03T05:14:14;102315.09;;;19.76;39.52
68366;BME280;55283;51.466;5.478;2023-03-03T05:16:39;102321.88;;;19.75;39.62
68366;BME280;55283;51.466;5.478;2023-03-03T05:19:05;102319.47;;;19.77;39.54
68366;BME280;55283;51.466;5.478;2023-03-03T05:21:30;102315.47;;;19.78;39.46
68366;BME280;55283;51.466;5.478;2023-03-03T05:23:55;102321.06;;;19.78;39.43
68366;BME280;55283;51.466;5.478;2023-03-03T05:26:21;102320.28;;;19.77;39.57
68366;BME280;55283;51.466;5.478;2023-03-03T05:28:46;102327.06;;;19.76;39.46
68366;BME280;55283;51.466;5.478;2023-03-03T05:31:12;102322.28;;;19.77;39.33
68366;BME280;55283;51.466;5.478;2023-03-03T05:33:37;102330.25;;;19.75;39.62
68366;BME280;55283;51.466;5.478;2023-03-03T05:36:03;102320.69;;;19.76;39.44
68366;BME280;55283;51.466;5.478;2023-03-03T05:38:28;102319.50;;;19.73;39.49
68366;BME280;55283;51.466;5.478;2023-03-03T05:40:56;102330.25;;;19.75;39.58
68366;BME280;55283;51.466;5.478;2023-03-03T05:43:22;102323.50;;;19.76;39.40
68366;BME280;55283;51.466;5.478;2023-03-03T05:45:53;102324.28;;;19.73;39.37
68366;BME280;55283;51.466;5.478;2023-03-03T05:48:21;102326.66;;;19.74;39.42
68366;BME280;55283;51.466;5.478;2023-03-03T05:50:47;102324.66;;;19.75;39.24
68366;BME280;55283;51.466;5.478;2023-03-03T05:53:12;102327.47;;;19.75;39.29
68366;BME280;55283;51.466;5.478;2023-03-03T05:55:38;102325.88;;;19.74;39.37
68366;BME280;55283;51.466;5.478;2023-03-03T05:58:03;102330.69;;;19.73;39.37
68366;BME280;55283;51.466;5.478;2023-03-03T06:00:28;102325.88;;;19.74;39.38
68366;BME280;55283;51.466;5.478;2023-03-03T06:02:54;102336.66;;;19.75;39.48
68366;BME280;55283;51.466;5.478;2023-03-03T06:05:21;102330.25;;;19.75;39.32
68366;BME280;55283;51.466;5.478;2023-03-03T06:07:47;102318.28;;;19.67;39.56
68366;BME280;55283;51.466;5.478;2023-03-03T06:10:13;102341.88;;;19.73;39.24
68366;BME280;55283;51.466;5.478;2023-03-03T06:12:39;102339.47;;;19.72;39.43
68366;BME280;55283;51.466;5.478;2023-03-03T06:15:06;102338.66;;;19.71;39.33
68366;BME280;55283;51.466;5.478;2023-03-03T06:17:32;102343.06;;;19.72;39.42
68366;BME280;55283;51.466;5.478;2023-03-03T06:19:57;102341.06;;;19.73;39.39
68366;BME280;55283;51.466;5.478;2023-03-03T06:22:28;102339.06;;;19.73;39.44
68366;BME280;55283;51.466;5.478;2023-03-03T06:24:53;102343.47;;;19.74;39.50
68366;BME280;55283;51.466;5.478;2023-03-03T06:27:18;102350.66;;;19.72;39.29
68366;BME280;55283;51.466;5.478;2023-03-03T06:29:46;102342.66;;;19.74;39.26
68366;BME280;55283;51.466;5.478;2023-03-03T06:32:11;102346.66;;;19.76;39.18
68366;BME280;55283;51.466;5.478;2023-03-03T06:34:37;102360.25;;;19.71;39.34
68366;BME280;55283;51.466;5.478;2023-03-03T06:37:02;102365.03;;;19.77;39.40
68366;BME280;55283;51.466;5.478;2023-03-03T06:39:28;102353.03;;;19.80;39.41
68366;BME280;55283;51.466;5.478;2023-03-03T06:41:53;102369.06;;;19.73;39.76
68366;BME280;55283;51.466;5.478;2023-03-03T06:44:19;102375.03;;;19.67;40.00
68366;BME280;55283;51.466;5.478;2023-03-03T06:46:44;102377.44;;;19.65;40.27
68366;BME280;55283;51.466;5.478;2023-03-03T06:49:09;102381.44;;;19.64;40.28
68366;BME280;55283;51.466;5.478;2023-03-03T06:51:38;102381.81;;;19.63;40.28
68366;BME280;55283;51.466;5.478;2023-03-03T06:56:38;102388.25;;;19.85;40.20
68366;BME280;55283;51.466;5.478;2023-03-03T06:59:19;102394.63;;;19.89;40.56
68366;BME280;55283;51.466;5.478;2023-03-03T07:01:48;102393.81;;;19.92;40.74
68366;BME280;55283;51.466;5.478;2023-03-03T07:04:29;102395.41;;;19.89;40.65
68366;BME280;55283;51.466;5.478;2023-03-03T07:07:06;102398.63;;;19.84;40.58
68366;BME280;55283;51.466;5.478;2023-03-03T07:09:37;102401.44;;;19.84;40.69
68366;BME280;55283;51.466;5.478;2023-03-03T07:12:09;102401.03;;;19.79;38.38
68366;BME280;55283;51.466;5.478;2023-03-03T07:14:52;102395.81;;;19.74;39.66
68366;BME280;55283;51.466;5.478;2023-03-03T07:17:23;102401.41;;;19.74;40.70
68366;BME280;55283;51.466;5.478;2023-03-03T07:19:49;102404.59;;;19.72;40.90
68366;BME280;55283;51.466;5.478;2023-03-03T07:22:24;102399.81;;;19.69;40.75
68366;BME280;55283;51.466;5.478;2023-03-03T07:24:53;102402.22;;;19.71;41.27
68366;BME280;55283;51.466;5.478;2023-03-03T07:27:26;102398.19;;;19.61;39.98
68366;BME280;55283;51.466;5.478;2023-03-03T07:29:54;102395.78;;;19.56;39.88
68366;BME280;55283;51.466;5.478;2023-03-03T07:32:39;102402.63;;;19.58;40.18
68366;BME280;55283;51.466;5.478;2023-03-03T07:35:36;102408.59;;;19.57;40.55
68366;BME280;55283;51.466;5.478;2023-03-03T07:40:54;102421.34;;;19.54;40.78
68366;BME280;55283;51.466;5.478;2023-03-03T07:43:30;102420.97;;;19.52;40.54
68366;BME280;55283;51.466;5.478;2023-03-03T07:48:37;102418.16;;;19.52;40.63
68366;BME280;55283;51.466;5.478;2023-03-03T07:56:45;102428.16;;;19.50;40.68
68366;BME280;55283;51.466;5.478;2023-03-03T07:59:34;102423.72;;;19.49;40.63
68366;BME280;55283;51.466;5.478;2023-03-03T08:02:05;102424.13;;;19.47;40.62
68366;BME280;55283;51.466;5.478;2023-03-03T08:04:43;102434.53;;;19.47;40.58
68366;BME280;55283;51.466;5.478;2023-03-03T08:07:19;102439.72;;;19.41;38.59
68366;BME280;55283;51.466;5.478;2023-03-03T08:09:48;102439.69;;;19.30;38.05
68366;BME280;55283;51.466;5.478;2023-03-03T08:14:40;102435.25;;;19.26;40.31
68366;BME280;55283;51.466;5.478;2023-03-03T08:17:19;102450.84;;;19.30;40.47
68366;BME280;55283;51.466;5.478;2023-03-03T08:19:45;102442.09;;;19.35;40.57
68366;BME280;55283;51.466;5.478;2023-03-03T08:22:19;102456.88;;;19.39;40.36
68366;BME280;55283;51.466;5.478;2023-03-03T08:24:48;102456.06;;;19.39;40.42
68366;BME280;55283;51.466;5.478;2023-03-03T08:27:14;102452.47;;;19.35;40.31
68366;BME280;55283;51.466;5.478;2023-03-03T08:29:39;102451.59;;;19.20;34.84
68366;BME280;55283;51.466;5.478;2023-03-03T08:32:05;102447.16;;;19.05;34.25
68366;BME280;55283;51.466;5.478;2023-03-03T08:34:33;102457.53;;;19.00;34.81
68366;BME280;55283;51.466;5.478;2023-03-03T08:36:58;102451.97;;;19.04;35.77
68366;BME280;55283;51.466;5.478;2023-03-03T08:39:24;102458.38;;;19.12;37.65
68366;BME280;55283;51.466;5.478;2023-03-03T08:41:49;102452.38;;;19.06;38.48
68366;BME280;55283;51.466;5.478;2023-03-03T08:44:15;102456.75;;;19.07;38.33
68366;BME280;55283;51.466;5.478;2023-03-03T08:46:40;102456.81;;;19.14;38.39
68366;BME280;55283;51.466;5.478;2023-03-03T08:49:10;102466.38;;;19.13;38.35
68366;BME280;55283;51.466;5.478;2023-03-03T08:51:38;102463.16;;;19.08;38.61
68366;BME280;55283;51.466;5.478;2023-03-03T08:54:06;102469.53;;;19.08;38.54
68366;BME280;55283;51.466;5.478;2023-03-03T08:56:32;102468.75;;;19.11;38.69
68366;BME280;55283;51.466;5.478;2023-03-03T08:58:57;102472.00;;;19.20;38.92
68366;BME280;55283;51.466;5.478;2023-03-03T09:01:23;102480.41;;;19.28;38.60
68366;BME280;55283;51.466;5.478;2023-03-03T09:03:51;102490.00;;;19.34;38.62
68366;BME280;55283;51.466;5.478;2023-03-03T09:06:28;102482.44;;;19.38;38.55
68366;BME280;55283;51.466;5.478;2023-03-03T09:08:54;102482.44;;;19.38;38.60
68366;BME280;55283;51.466;5.478;2023-03-03T09:11:23;102487.25;;;19.41;38.50
68366;BME280;55283;51.466;5.478;2023-03-03T09:13:50;102484.47;;;19.41;38.29
68366;BME280;55283;51.466;5.478;2023-03-03T09:16:18;102486.84;;;19.42;38.67
68366;BME280;55283;51.466;5.478;2023-03-03T09:18:46;102489.25;;;19.44;38.36
68366;BME280;55283;51.466;5.478;2023-03-03T09:21:21;102487.25;;;19.44;38.49
68366;BME280;55283;51.466;5.478;2023-03-03T09:23:58;102489.63;;;19.39;38.69
68366;BME280;55283;51.466;5.478;2023-03-03T09:26:45;102485.19;;;19.27;39.05
68366;BME280;55283;51.466;5.478;2023-03-03T09:34:19;102497.22;;;19.42;38.84
68366;BME280;55283;51.466;5.478;2023-03-03T09:36:50;102490.44;;;19.43;39.07
68366;BME280;55283;51.466;5.478;2023-03-03T09:39:20;102496.44;;;19.41;39.10
68366;BME280;55283;51.466;5.478;2023-03-03T09:50:30;102495.22;;;19.42;39.18
68366;BME280;55283;51.466;5.478;2023-03-03T10:08:55;102514.44;;;19.48;39.29
68366;BME280;55283;51.466;5.478;2023-03-03T10:11:35;102511.22;;;19.49;39.21
68366;BME280;55283;51.466;5.478;2023-03-03T10:33:24;102517.31;;;19.65;39.30
68366;BME280;55283;51.466;5.478;2023-03-03T10:47:16;102514.09;;;19.60;39.77
68366;BME280;55283;51.466;5.478;2023-03-03T10:52:42;102514.50;;;19.65;39.61
68366;BME280;55283;51.466;5.478;2023-03-03T11:06:24;102508.94;;;19.73;39.88
68366;BME280;55283;51.466;5.478;2023-03-03T11:08:58;102510.13;;;19.75;39.96
68366;BME280;55283;51.466;5.478;2023-03-03T11:23:33;102508.91;;;19.69;40.22
68366;BME280;55283;51.466;5.478;2023-03-03T11:31:47;102498.59;;;19.91;40.21
68366;BME280;55283;51.466;5.478;2023-03-03T11:37:22;102495.78;;;19.98;40.95
68366;BME280;55283;51.466;5.478;2023-03-03T11:39:54;102488.19;;;20.02;40.94
68366;BME280;55283;51.466;5.478;2023-03-03T11:42:27;102491.00;;;20.02;41.50
68366;BME280;55283;51.466;5.478;2023-03-03T11:45:12;102498.97;;;20.07;40.72
68366;BME280;55283;51.466;5.478;2023-03-03T11:47:51;102496.19;;;20.04;40.16
68366;BME280;55283;51.466;5.478;2023-03-03T11:55:35;102489.78;;;20.07;40.42
68366;BME280;55283;51.466;5.478;2023-03-03T11:58:23;102485.38;;;20.13;40.52
68366;BME280;55283;51.466;5.478;2023-03-03T12:00:58;102476.19;;;20.09;40.23
68366;BME280;55283;51.466;5.478;2023-03-03T12:03:44;102487.41;;;20.20;40.09
68366;BME280;55283;51.466;5.478;2023-03-03T12:07:02;102481.00;;;20.23;40.16
68366;BME280;55283;51.466;5.478;2023-03-03T12:09:45;102481.78;;;20.27;40.29
68366;BME280;55283;51.466;5.478;2023-03-03T12:12:23;102479.41;;;20.29;40.28
68366;BME280;55283;51.466;5.478;2023-03-03T12:15:22;102486.63;;;20.37;40.27
68366;BME280;55283;51.466;5.478;2023-03-03T12:20:55;102485.03;;;20.40;40.01
68366;BME280;55283;51.466;5.478;2023-03-03T12:26:15;102469.00;;;20.44;40.04
68366;BME280;55283;51.466;5.478;2023-03-03T12:28:58;102466.59;;;20.49;40.07
68366;BME280;55283;51.466;5.478;2023-03-03T12:31:54;102467.00;;;20.51;39.89
68366;BME280;55283;51.466;5.478;2023-03-03T12:34:41;102468.19;;;20.50;40.18
68366;BME280;55283;51.466;5.478;2023-03-03T12:40:09;102459.78;;;20.50;40.25
68366;BME280;55283;51.466;5.478;2023-03-03T12:45:43;102457.78;;;20.51;40.25
68366;BME280;55283;51.466;5.478;2023-03-03T12:48:18;102453.38;;;20.53;39.98
68366;BME280;55283;51.466;5.478;2023-03-03T12:53:34;102462.56;;;20.61;40.33
68366;BME280;55283;51.466;5.478;2023-03-03T12:56:09;102458.19;;;20.60;40.08
68366;BME280;55283;51.466;5.478;2023-03-03T13:03:52;102454.56;;;20.67;40.04
68366;BME280;55283;51.466;5.478;2023-03-03T13:09:00;102446.94;;;20.71;40.02
68366;BME280;55283;51.466;5.478;2023-03-03T13:14:14;102449.72;;;20.71;39.83
68366;BME280;55283;51.466;5.478;2023-03-03T13:17:00;102443.34;;;20.70;39.88
68366;BME280;55283;51.466;5.478;2023-03-03T13:19:48;102448.91;;;20.74;40.06
68366;BME280;55283;51.466;5.478;2023-03-03T13:22:24;102443.72;;;20.76;39.90
68366;BME280;55283;51.466;5.478;2023-03-03T13:24:57;102444.91;;;20.78;39.70
68366;BME280;55283;51.466;5.478;2023-03-03T13:27:31;102435.72;;;20.78;39.91
68366;BME280;55283;51.466;5.478;2023-03-03T13:30:07;102435.28;;;20.79;39.97
68366;BME280;55283;51.466;5.478;2023-03-03T13:35:47;102434.09;;;20.80;39.88
68366;BME280;55283;51.466;5.478;2023-03-03T13:38:24;102430.91;;;20.78;39.73
68366;BME280;55283;51.466;5.478;2023-03-03T13:43:33;102429.28;;;20.81;39.94
68366;BME280;55283;51.466;5.478;2023-03-03T14:00:14;102424.09;;;20.76;39.81
68366;BME280;55283;51.466;5.478;2023-03-03T14:05:15;102412.47;;;20.81;39.84
68366;BME280;55283;51.466;5.478;2023-03-03T14:10:25;102402.09;;;20.78;39.85
68366;BME280;55283;51.466;5.478;2023-03-03T14:18:29;102409.28;;;20.79;39.79
68366;BME280;55283;51.466;5.478;2023-03-03T14:21:11;102414.47;;;20.77;39.83
68366;BME280;55283;51.466;5.478;2023-03-03T14:26:28;102410.50;;;20.71;40.02
68366;BME280;55283;51.466;5.478;2023-03-03T14:29:12;102400.09;;;20.71;40.07
68366;BME280;55283;51.466;5.478;2023-03-03T14:31:41;102403.72;;;20.72;40.06
68366;BME280;55283;51.466;5.478;2023-03-03T14:40:21;102400.91;;;20.72;39.99
68366;BME280;55283;51.466;5.478;2023-03-03T14:42:55;102390.88;;;20.71;40.25
68366;BME280;55283;51.466;5.478;2023-03-03T14:47:59;102390.53;;;20.62;40.58
68366;BME280;55283;51.466;5.478;2023-03-03T14:50:38;102387.72;;;20.62;40.68
68366;BME280;55283;51.466;5.478;2023-03-03T14:55:51;102390.13;;;20.60;40.45
68366;BME280;55283;51.466;5.478;2023-03-03T15:00:49;102382.13;;;20.58;40.62
68366;BME280;55283;51.466;5.478;2023-03-03T15:05:54;102374.94;;;20.61;40.59
68366;BME280;55283;51.466;5.478;2023-03-03T15:08:40;102379.31;;;20.62;40.39
68366;BME280;55283;51.466;5.478;2023-03-03T15:11:25;102364.91;;;20.56;40.34
68366;BME280;55283;51.466;5.478;2023-03-03T15:13:52;102364.94;;;20.52;40.51
68366;BME280;55283;51.466;5.478;2023-03-03T15:16:22;102370.53;;;20.56;40.76
68366;BME280;55283;51.466;5.478;2023-03-03T15:19:13;102361.31;;;20.55;40.46
68366;BME280;55283;51.466;5.478;2023-03-03T15:26:58;102354.50;;;20.56;40.30
68366;BME280;55283;51.466;5.478;2023-03-03T15:30:14;102352.53;;;20.53;40.54
68366;BME280;55283;51.466;5.478;2023-03-03T15:32:21;102349.34;;;20.51;40.68
68366;BME280;55283;51.466;5.478;2023-03-03T15:34:57;102355.31;;;20.53;40.44
68366;BME280;55283;51.466;5.478;2023-03-03T15:40:27;102349.72;;;20.53;40.63
68366;BME280;55283;51.466;5.478;2023-03-03T15:45:44;102352.16;;;20.51;40.68
68366;BME280;55283;51.466;5.478;2023-03-03T15:48:30;102353.34;;;20.47;40.64
68366;BME280;55283;51.466;5.478;2023-03-03T15:58:58;102343.38;;;20.46;40.58
68366;BME280;55283;51.466;5.478;2023-03-03T16:01:34;102340.19;;;20.40;40.64
68366;BME280;55283;51.466;5.478;2023-03-03T16:04:03;102337.75;;;20.46;40.67
68366;BME280;55283;51.466;5.478;2023-03-03T16:06:43;102332.94;;;20.35;40.77
68366;BME280;55283;51.466;5.478;2023-03-03T16:20:14;102336.63;;;20.15;41.79
68366;BME280;55283;51.466;5.478;2023-03-03T16:28:18;102339.41;;;20.07;41.58
68366;BME280;55283;51.466;5.478;2023-03-03T16:30:54;102331.84;;;20.08;42.07
68366;BME280;55283;51.466;5.478;2023-03-03T16:33:31;102337.44;;;20.08;41.95
68366;BME280;55283;51.466;5.478;2023-03-03T16:36:21;102339.81;;;20.20;41.86
68366;BME280;55283;51.466;5.478;2023-03-03T16:39:05;102344.59;;;20.20;42.08
68366;BME280;55283;51.466;5.478;2023-03-03T16:44:50;102350.59;;;20.29;42.33
68366;BME280;55283;51.466;5.478;2023-03-03T16:50:39;102351.38;;;20.37;42.82
68366;BME280;55283;51.466;5.478;2023-03-03T16:56:13;102356.16;;;20.32;42.40
68366;BME280;55283;51.466;5.478;2023-03-03T16:59:11;102354.94;;;20.33;42.25
68366;BME280;55283;51.466;5.478;2023-03-03T17:01:48;102357.38;;;20.35;42.56
68366;BME280;55283;51.466;5.478;2023-03-03T17:15:30;102368.19;;;20.37;42.18
68366;BME280;55283;51.466;5.478;2023-03-03T17:20:49;102364.97;;;20.38;42.15
68366;BME280;55283;51.466;5.478;2023-03-03T17:23:45;102373.78;;;20.40;42.44
68366;BME280;55283;51.466;5.478;2023-03-03T17:45:33;102399.38;;;20.39;41.37
68366;BME280;55283;51.466;5.478;2023-03-03T17:48:33;102400.16;;;20.35;41.19